createdAt,value
2023-03-02T00:00:58.664Z,97206.09
2023-03-02T00:03:26.892Z,97201.56
2023-03-02T00:05:55.422Z,97190.44
2023-03-02T00:08:23.217Z,97195.41
2023-03-02T00:10:50.946Z,97200.41
2023-03-02T00:13:18.962Z,97189.00
2023-03-02T00:15:47.986Z,97195.50
2023-03-02T00:18:15.959Z,97185.34
2023-03-02T00:20:43.628Z,97180.06
2023-03-02T00:23:11.289Z,97177.88
2023-03-02T00:25:38.954Z,97173.13
2023-03-02T00:28:06.846Z,97187.94
2023-03-02T00:30:34.530Z,97186.41
2023-03-02T00:33:03.555Z,97174.13
2023-03-02T00:35:31.320Z,97174.53
2023-03-02T00:37:59.012Z,97176.41
2023-03-02T00:40:26.674Z,97178.69
2023-03-02T00:42:54.298Z,97181.38
2023-03-02T00:45:21.994Z,97173.91
2023-03-02T00:47:49.663Z,97175.78
2023-03-02T00:50:18.998Z,97168.72
2023-03-02T00:52:46.674Z,97170.81
2023-03-02T00:55:14.363Z,97169.25
2023-03-02T00:57:42.071Z,97171.41
2023-03-02T01:00:10.926Z,97167.91
2023-03-02T01:02:44.461Z,97154.59
2023-03-02T01:05:12.516Z,97158.25
2023-03-02T01:07:41.465Z,97153.88
2023-03-02T01:10:11.191Z,97140.09
2023-03-02T01:12:38.871Z,97154.59
2023-03-02T01:15:07.774Z,97137.66
2023-03-02T01:17:35.429Z,97138.22
2023-03-02T01:20:04.517Z,97131.75
2023-03-02T01:22:32.210Z,97138.00
2023-03-02T01:25:01.251Z,97121.38
2023-03-02T01:27:28.866Z,97116.09
2023-03-02T01:29:56.522Z,97111.09
2023-03-02T01:32:24.293Z,97106.84
2023-03-02T01:34:52.045Z,97112.03
2023-03-02T01:37:20.814Z,97107.44
2023-03-02T01:39:48.553Z,97112.56
2023-03-02T01:42:17.854Z,97098.94
2023-03-02T01:44:47.445Z,97109.09
2023-03-02T01:47:18.770Z,97110.88
2023-03-02T01:49:50.629Z,97101.03
2023-03-02T01:52:19.060Z,97109.47
2023-03-02T01:54:49.891Z,97104.25
2023-03-02T01:57:23.218Z,97108.22
2023-03-02T01:59:54.402Z,97106.06
2023-03-02T02:02:22.200Z,97099.72
2023-03-02T02:04:50.248Z,97099.72
2023-03-02T02:07:18.031Z,97098.66
2023-03-02T02:09:47.405Z,97098.22
2023-03-02T02:12:15.855Z,97096.25
2023-03-02T02:14:45.737Z,97095.41
2023-03-02T02:17:13.976Z,97094.91
2023-03-02T02:19:50.793Z,97094.81
2023-03-02T02:22:23.341Z,97097.06
2023-03-02T02:24:53.734Z,97098.53
2023-03-02T02:27:29.837Z,97095.41
2023-03-02T02:29:58.503Z,97098.44
2023-03-02T02:32:28.422Z,97100.59
2023-03-02T02:34:59.799Z,97094.81
2023-03-02T02:37:30.189Z,97082.84
2023-03-02T02:39:58.679Z,97086.38
2023-03-02T02:42:31.147Z,97089.09
2023-03-02T02:45:02.197Z,97080.28
2023-03-02T02:47:30.121Z,97088.19
2023-03-02T02:49:58.380Z,97086.94
2023-03-02T02:52:28.143Z,97081.94
2023-03-02T02:54:57.495Z,97081.94
2023-03-02T02:57:29.396Z,97087.56
2023-03-02T02:59:59.516Z,97091.19
2023-03-02T03:02:28.911Z,97080.31
2023-03-02T03:05:02.621Z,97085.91
2023-03-02T03:07:31.727Z,97084.88
2023-03-02T03:10:02.930Z,97083.00
2023-03-02T03:12:33.153Z,97073.44
2023-03-02T03:15:01.456Z,97082.69
2023-03-02T03:17:29.156Z,97078.63
2023-03-02T03:20:06.311Z,97085.38
2023-03-02T03:22:36.238Z,97072.19
2023-03-02T03:25:04.118Z,97074.47
2023-03-02T03:27:34.159Z,97078.94
2023-03-02T03:30:01.885Z,97072.53
2023-03-02T03:32:29.827Z,97074.78
2023-03-02T03:34:57.575Z,97079.47
2023-03-02T03:37:25.329Z,97076.25
2023-03-02T03:39:53.030Z,97077.81
2023-03-02T03:42:20.726Z,97082.56
2023-03-02T03:44:49.749Z,97087.56
2023-03-02T03:47:17.413Z,97089.44
2023-03-02T03:49:45.182Z,97081.75
2023-03-02T03:52:12.799Z,97081.75
2023-03-02T03:54:40.526Z,97080.91
2023-03-02T03:57:08.325Z,97088.09
2023-03-02T03:59:36.022Z,97079.91
2023-03-02T04:02:05.078Z,97082.56
2023-03-02T04:04:34.303Z,97074.28
2023-03-02T04:07:02.049Z,97074.69
2023-03-02T04:09:32.169Z,97077.34
2023-03-02T04:11:59.913Z,97081.19
2023-03-02T04:14:27.564Z,97079.44
2023-03-02T04:16:55.232Z,97081.16
2023-03-02T04:19:24.672Z,97080.00
2023-03-02T04:21:53.840Z,97072.28
2023-03-02T04:24:23.058Z,97075.09
2023-03-02T04:26:51.352Z,97069.75
2023-03-02T04:29:19.185Z,97074.31
2023-03-02T04:31:48.397Z,97071.06
2023-03-02T04:34:16.226Z,97063.72
2023-03-02T04:36:45.766Z,97069.53
2023-03-02T04:39:15.070Z,97077.44
2023-03-02T04:41:42.806Z,97059.47
2023-03-02T04:44:10.526Z,97082.53
2023-03-02T04:46:38.543Z,97077.72
2023-03-02T04:49:06.896Z,97080.66
2023-03-02T04:51:37.553Z,97084.28
2023-03-02T04:54:08.663Z,97081.50
2023-03-02T04:56:36.384Z,97085.34
2023-03-02T04:59:04.080Z,97071.78
2023-03-02T05:01:31.799Z,97079.59
2023-03-02T05:04:02.440Z,97081.97
2023-03-02T05:06:30.890Z,97074.41
2023-03-02T05:08:59.871Z,97084.16
2023-03-02T05:11:29.452Z,97075.00
2023-03-02T05:13:59.652Z,97075.00
2023-03-02T05:16:29.601Z,97064.31
2023-03-02T05:18:57.621Z,97068.06
2023-03-02T05:21:25.880Z,97073.34
2023-03-02T05:23:53.971Z,97075.84
2023-03-02T05:26:21.750Z,97073.69
2023-03-02T05:28:53.029Z,97080.19
2023-03-02T05:31:24.265Z,97072.75
2023-03-02T05:33:52.073Z,97069.94
2023-03-02T05:36:22.929Z,97069.41
2023-03-02T05:38:50.975Z,97073.56
2023-03-02T05:41:18.824Z,97071.81
2023-03-02T05:43:46.518Z,97080.31
2023-03-02T05:46:16.586Z,97082.91
2023-03-02T05:48:44.184Z,97078.00
2023-03-02T05:51:11.824Z,97082.06
2023-03-02T05:53:40.235Z,97089.63
2023-03-02T05:56:08.633Z,97093.78
2023-03-02T05:58:36.353Z,97088.41
2023-03-02T06:01:09.209Z,97094.09
2023-03-02T06:03:38.142Z,97105.84
2023-03-02T06:06:05.946Z,97104.78
2023-03-02T06:08:33.471Z,97097.13
2023-03-02T06:11:01.029Z,97101.06
2023-03-02T06:13:28.765Z,97096.69
2023-03-02T06:15:56.920Z,97105.63
2023-03-02T06:18:24.596Z,97096.78
2023-03-02T06:20:53.484Z,97109.16
2023-03-02T06:23:21.665Z,97111.41
2023-03-02T06:25:49.370Z,97098.56
2023-03-02T06:28:18.776Z,97107.25
2023-03-02T06:30:46.529Z,97107.66
2023-03-02T06:33:14.098Z,97111.38
2023-03-02T06:35:41.701Z,97101.72
2023-03-02T06:38:10.714Z,97108.34
2023-03-02T06:40:38.434Z,97108.84
2023-03-02T06:43:05.933Z,97104.09
2023-03-02T06:45:34.649Z,97106.25
2023-03-02T06:48:02.662Z,97106.44
2023-03-02T06:50:30.212Z,97100.91
2023-03-02T06:52:57.830Z,97103.06
2023-03-02T06:55:26.956Z,97100.97
2023-03-02T06:57:54.607Z,97104.19
2023-03-02T07:00:27.890Z,97099.59
2023-03-02T07:02:56.165Z,97106.00
2023-03-02T07:05:24.617Z,97113.16
2023-03-02T07:07:52.313Z,97099.47
2023-03-02T07:10:20.386Z,97104.84
2023-03-02T07:12:49.227Z,97099.28
2023-03-02T07:15:17.640Z,97101.44
2023-03-02T07:17:45.724Z,97097.94
2023-03-02T07:20:15.381Z,97091.56
2023-03-02T07:22:43.948Z,97090.88
2023-03-02T07:25:12.255Z,97092.28
2023-03-02T07:27:40.451Z,97093.50
2023-03-02T07:30:10.908Z,97089.50
2023-03-02T07:32:38.500Z,97084.19
2023-03-02T07:35:06.676Z,97086.88
2023-03-02T07:37:34.256Z,97091.41
2023-03-02T07:40:01.910Z,97087.94
2023-03-02T07:42:29.442Z,97092.44
2023-03-02T07:44:57.206Z,97097.19
2023-03-02T07:47:28.859Z,97097.84
2023-03-02T07:49:56.410Z,97087.63
2023-03-02T07:52:23.969Z,97094.75
2023-03-02T07:54:51.968Z,97090.81
2023-03-02T07:57:20.015Z,97090.41
2023-03-02T07:59:47.596Z,97092.16
2023-03-02T08:02:17.189Z,97095.09
2023-03-02T08:04:46.073Z,97091.22
2023-03-02T08:07:13.648Z,97100.78
2023-03-02T08:09:41.341Z,97085.81
2023-03-02T08:12:08.956Z,97088.41
2023-03-02T08:14:36.885Z,97086.63
2023-03-02T08:17:05.596Z,97086.41
2023-03-02T08:19:33.801Z,97085.13
2023-03-02T08:22:03.270Z,97084.75
2023-03-02T08:24:30.857Z,97087.66
2023-03-02T08:27:01.238Z,97083.44
2023-03-02T08:29:28.856Z,97085.38
2023-03-02T08:31:56.517Z,97076.47
2023-03-02T08:34:24.138Z,97085.16
2023-03-02T08:36:51.665Z,97075.66
2023-03-02T08:39:22.030Z,97074.31
2023-03-02T08:41:51.022Z,97076.09
2023-03-02T08:44:18.795Z,97068.28
2023-03-02T08:46:46.360Z,97071.56
2023-03-02T08:49:13.871Z,97078.03
2023-03-02T08:51:41.401Z,97074.53
2023-03-02T08:54:09.191Z,97075.91
2023-03-02T08:56:39.677Z,97065.75
2023-03-02T08:59:08.856Z,97072.59
2023-03-02T09:01:37.942Z,97066.19
2023-03-02T09:04:07.467Z,97066.78
2023-03-02T09:06:36.729Z,97061.13
2023-03-02T09:09:04.898Z,97070.84
2023-03-02T09:11:33.433Z,97064.41
2023-03-02T09:14:02.859Z,97072.75
2023-03-02T09:16:30.619Z,97055.31
2023-03-02T09:18:58.198Z,97065.50
2023-03-02T09:21:26.375Z,97050.31
2023-03-02T09:23:55.888Z,97065.81
2023-03-02T09:26:23.451Z,97057.47
2023-03-02T09:28:51.086Z,97052.13
2023-03-02T09:31:20.017Z,97048.53
2023-03-02T09:33:47.618Z,97060.09
2023-03-02T09:36:20.356Z,97055.13
2023-03-02T09:38:48.154Z,97054.38
2023-03-02T09:41:39.294Z,97062.47
2023-03-02T09:44:17.738Z,97055.41
2023-03-02T09:46:49.445Z,97050.75
2023-03-02T09:49:22.415Z,97055.72
2023-03-02T09:52:00.722Z,97054.03
2023-03-02T09:54:28.336Z,97058.19
2023-03-02T09:56:57.813Z,97056.28
2023-03-02T09:59:27.704Z,97060.94
2023-03-02T10:02:02.348Z,97053.84
2023-03-02T10:04:32.145Z,97045.22
2023-03-02T10:07:02.892Z,97050.25
2023-03-02T10:09:30.390Z,97053.03
2023-03-02T10:12:11.935Z,97049.47
2023-03-02T10:14:44.758Z,97049.03
2023-03-02T10:17:34.727Z,97036.38
2023-03-02T10:20:05.414Z,97048.25
2023-03-02T10:22:35.879Z,97032.56
2023-03-02T10:25:18.245Z,97037.53
2023-03-02T10:27:52.006Z,97026.41
2023-03-02T10:30:21.618Z,97030.38
2023-03-02T10:32:52.380Z,97037.09
2023-03-02T10:35:22.950Z,97036.63
2023-03-02T10:37:52.461Z,97026.44
2023-03-02T10:40:31.411Z,97032.53
2023-03-02T10:42:59.445Z,97035.81
2023-03-02T10:45:29.987Z,97026.63
2023-03-02T10:48:03.100Z,97030.91
2023-03-02T10:50:31.593Z,97030.38
2023-03-02T10:53:01.929Z,97027.13
2023-03-02T10:55:31.731Z,97032.38
2023-03-02T10:58:05.636Z,97031.06
2023-03-02T11:00:35.601Z,97016.91
2023-03-02T11:03:07.389Z,97025.97
2023-03-02T11:05:36.634Z,97019.38
2023-03-02T11:08:06.261Z,97019.66
2023-03-02T11:10:36.647Z,97020.50
2023-03-02T11:13:17.164Z,97016.88
2023-03-02T11:15:47.080Z,97012.50
2023-03-02T11:18:26.256Z,97010.41
2023-03-02T11:20:56.244Z,97014.22
2023-03-02T11:23:28.216Z,97002.31
2023-03-02T11:25:58.848Z,97003.78
2023-03-02T11:28:45.811Z,97006.22
2023-03-02T11:31:19.641Z,97008.88
2023-03-02T11:34:07.938Z,96996.44
2023-03-02T11:36:46.726Z,96988.66
2023-03-02T11:39:17.893Z,96992.31
2023-03-02T11:41:45.474Z,96997.06
2023-03-02T11:44:18.784Z,96985.47
2023-03-02T11:46:48.688Z,96993.59
2023-03-02T11:49:20.640Z,96986.44
2023-03-02T11:54:47.046Z,96977.66
2023-03-02T11:57:21.700Z,96975.75
2023-03-02T11:59:49.860Z,96971.91
2023-03-02T12:02:17.616Z,96974.69
2023-03-02T12:04:48.364Z,96977.31
2023-03-02T12:07:22.857Z,96966.41
2023-03-02T12:10:07.103Z,96969.34
2023-03-02T12:12:40.911Z,96969.41
2023-03-02T12:15:28.929Z,96968.16
2023-03-02T12:17:56.580Z,96969.28
2023-03-02T12:20:28.371Z,96960.28
2023-03-02T12:23:07.874Z,96961.34
2023-03-02T12:25:43.819Z,96958.06
2023-03-02T12:28:27.614Z,96958.00
2023-03-02T12:31:03.748Z,96950.72
2023-03-02T12:33:31.358Z,96948.53
2023-03-02T12:36:13.038Z,96944.97
2023-03-02T12:38:42.582Z,96942.41
2023-03-02T12:41:22.418Z,96939.94
2023-03-02T12:43:59.751Z,96939.41
2023-03-02T12:46:33.180Z,96932.22
2023-03-02T12:49:05.888Z,96929.47
2023-03-02T12:51:48.421Z,96921.56
2023-03-02T12:54:18.024Z,96928.75
2023-03-02T12:56:46.144Z,96925.94
2023-03-02T12:59:22.863Z,96921.28
2023-03-02T13:01:50.971Z,96925.00
2023-03-02T13:04:23.199Z,96922.84
2023-03-02T13:06:53.049Z,96924.47
2023-03-02T13:09:21.124Z,96910.63
2023-03-02T13:11:49.814Z,96914.75
2023-03-02T13:14:20.081Z,96923.09
2023-03-02T13:16:56.787Z,96916.66
2023-03-02T13:19:25.681Z,96913.25
2023-03-02T13:21:54.613Z,96905.00
2023-03-02T13:24:37.616Z,96922.56
2023-03-02T13:27:07.633Z,96916.81
2023-03-02T13:29:35.476Z,96912.69
2023-03-02T13:32:19.629Z,96904.69
2023-03-02T13:34:50.072Z,96906.00
2023-03-02T13:37:23.304Z,96900.56
2023-03-02T13:39:58.717Z,96904.56
2023-03-02T13:42:29.266Z,96903.94
2023-03-02T13:44:56.800Z,96900.88
2023-03-02T13:47:25.574Z,96892.69
2023-03-02T13:49:53.816Z,96890.13
2023-03-02T13:52:28.286Z,96894.69
2023-03-02T13:54:56.159Z,96891.97
2023-03-02T13:57:30.704Z,96891.97
2023-03-02T13:59:58.739Z,96888.19
2023-03-02T14:02:27.826Z,96895.63
2023-03-02T14:04:56.105Z,96891.19
2023-03-02T14:07:25.168Z,96889.16
2023-03-02T14:09:52.664Z,96884.16
2023-03-02T14:12:24.048Z,96877.22
2023-03-02T14:14:52.472Z,96880.38
2023-03-02T14:17:23.737Z,96890.16
2023-03-02T14:19:53.440Z,96877.78
2023-03-02T14:22:21.527Z,96879.28
2023-03-02T14:24:50.643Z,96879.03
2023-03-02T14:27:19.247Z,96870.47
2023-03-02T14:29:47.755Z,96871.63
2023-03-02T14:32:16.264Z,96868.66
2023-03-02T14:34:43.958Z,96870.22
2023-03-02T14:37:14.272Z,96867.34
2023-03-02T14:39:44.718Z,96867.19
2023-03-02T14:42:15.663Z,96861.50
2023-03-02T14:44:44.215Z,96865.66
2023-03-02T14:47:11.727Z,96860.19
2023-03-02T14:49:39.781Z,96849.59
2023-03-02T14:52:14.143Z,96853.81
2023-03-02T14:54:44.879Z,96849.53
2023-03-02T14:57:18.322Z,96854.91
2023-03-02T14:59:46.063Z,96846.00
2023-03-02T15:02:24.856Z,96853.94
2023-03-02T15:04:56.128Z,96848.00
2023-03-02T15:07:26.021Z,96855.66
2023-03-02T15:09:53.580Z,96851.56
2023-03-02T15:12:22.564Z,96849.00
2023-03-02T15:14:50.119Z,96854.09
2023-03-02T15:17:17.719Z,96844.63
2023-03-02T15:19:45.292Z,96853.19
2023-03-02T15:22:13.906Z,96856.38
2023-03-02T15:24:41.462Z,96847.16
2023-03-02T15:27:09.625Z,96860.09
2023-03-02T15:29:38.489Z,96842.50
2023-03-02T15:32:07.538Z,96846.06
2023-03-02T15:34:35.272Z,96853.97
2023-03-02T15:37:03.160Z,96860.53
2023-03-02T15:39:30.659Z,96862.16
2023-03-02T15:41:58.218Z,96855.56
2023-03-02T15:44:26.094Z,96862.47
2023-03-02T15:46:56.185Z,96861.44
2023-03-02T15:49:27.130Z,96858.69
2023-03-02T15:51:57.349Z,96871.59
2023-03-02T15:54:25.451Z,96880.44
2023-03-02T15:56:53.392Z,96878.69
2023-03-02T15:59:21.242Z,96873.28
2023-03-02T16:01:48.850Z,96872.06
2023-03-02T16:04:17.758Z,96867.78
2023-03-02T16:06:45.550Z,96887.25
2023-03-02T16:09:13.252Z,96884.00
2023-03-02T16:11:40.835Z,96880.78
2023-03-02T16:14:08.372Z,96881.78
2023-03-02T16:16:36.321Z,96880.66
2023-03-02T16:19:03.954Z,96888.09
2023-03-02T16:21:34.066Z,96883.84
2023-03-02T16:24:04.635Z,96879.94
2023-03-02T16:26:33.554Z,96883.22
2023-03-02T16:29:01.609Z,96891.16
2023-03-02T16:31:33.139Z,96891.16
2023-03-02T16:34:06.067Z,96896.44
2023-03-02T16:36:35.185Z,96896.28
2023-03-02T16:39:02.827Z,96894.66
2023-03-02T16:41:30.455Z,96894.66
2023-03-02T16:43:59.420Z,96902.53
2023-03-02T16:46:29.353Z,96906.03
2023-03-02T16:48:57.901Z,96906.97
2023-03-02T16:51:26.067Z,96908.94
2023-03-02T16:53:55.100Z,96912.88
2023-03-02T16:56:22.660Z,96905.28
2023-03-02T16:58:50.316Z,96907.06
2023-03-02T17:01:20.393Z,96905.75
2023-03-02T17:03:49.267Z,96913.59
2023-03-02T17:06:19.619Z,96919.34
2023-03-02T17:08:47.180Z,96922.59
2023-03-02T17:11:16.093Z,96924.88
2023-03-02T17:13:45.017Z,96930.41
2023-03-02T17:16:13.003Z,96919.19
2023-03-02T17:18:40.951Z,96932.03
2023-03-02T17:21:08.646Z,96919.84
2023-03-02T17:23:36.963Z,96921.38
2023-03-02T17:26:04.897Z,96925.91
2023-03-02T17:28:33.760Z,96934.06
2023-03-02T17:31:04.049Z,96940.28
2023-03-02T17:33:33.787Z,96946.56
2023-03-02T17:36:04.732Z,96936.91
2023-03-02T17:38:32.259Z,96941.31
2023-03-02T17:41:03.104Z,96932.41
2023-03-02T17:43:33.790Z,96942.97
2023-03-02T17:46:13.691Z,96942.75
2023-03-02T17:48:41.670Z,96946.16
2023-03-02T17:51:11.731Z,96951.72
2023-03-02T17:53:39.619Z,96944.75
2023-03-02T17:56:07.853Z,96956.78
2023-03-02T17:58:44.606Z,96957.69
2023-03-02T18:01:13.585Z,96954.47
2023-03-02T18:03:41.211Z,96955.97
2023-03-02T18:06:08.889Z,96951.28
2023-03-02T18:08:36.928Z,96955.94
2023-03-02T18:11:05.052Z,96959.63
2023-03-02T18:13:32.626Z,96956.72
2023-03-02T18:16:01.774Z,96957.38
2023-03-02T18:18:29.373Z,96960.66
2023-03-02T18:20:57.120Z,96956.03
2023-03-02T18:23:24.887Z,96952.63
2023-03-02T18:25:52.405Z,96959.69
2023-03-02T18:28:20.153Z,96961.34
2023-03-02T18:30:48.162Z,96964.72
2023-03-02T18:33:17.341Z,96960.72
2023-03-02T18:35:45.007Z,96968.13
2023-03-02T18:38:12.698Z,96969.25
2023-03-02T18:40:40.269Z,96972.25
2023-03-02T18:43:07.800Z,96978.94
2023-03-02T18:45:35.458Z,96977.13
2023-03-02T18:48:03.232Z,96977.19
2023-03-02T18:50:32.152Z,96984.38
2023-03-02T18:53:00.897Z,96980.03
2023-03-02T18:55:28.448Z,96978.28
2023-03-02T18:57:55.995Z,96979.97
2023-03-02T19:00:27.816Z,96990.06
2023-03-02T19:02:55.991Z,96992.59
2023-03-02T19:05:26.810Z,96984.75
2023-03-02T19:07:57.585Z,96981.88
2023-03-02T19:10:25.129Z,96986.03
2023-03-02T19:12:52.682Z,96983.88
2023-03-02T19:15:20.511Z,96983.88
2023-03-02T19:17:51.862Z,96990.63
2023-03-02T19:20:20.940Z,96997.94
2023-03-02T19:22:48.798Z,97000.69
2023-03-02T19:25:17.986Z,97001.66
2023-03-02T19:27:45.584Z,97013.38
2023-03-02T19:30:17.602Z,96998.66
2023-03-02T19:32:45.169Z,97002.22
2023-03-02T19:35:18.044Z,97004.34
2023-03-02T19:37:46.335Z,97005.31
2023-03-02T19:40:15.406Z,97019.75
2023-03-02T19:42:45.459Z,97012.19
2023-03-02T19:45:16.572Z,97016.19
2023-03-02T19:47:45.322Z,97020.59
2023-03-02T19:50:13.431Z,97006.53
2023-03-02T19:52:41.915Z,97020.31
2023-03-02T19:55:12.753Z,97015.78
2023-03-02T19:57:41.003Z,97014.41
2023-03-02T20:00:14.669Z,97016.69
2023-03-02T20:02:42.585Z,97014.63
2023-03-02T20:05:11.142Z,97021.13
2023-03-02T20:07:41.640Z,97028.84
2023-03-02T20:10:10.856Z,97024.44
2023-03-02T20:12:38.430Z,97028.72
2023-03-02T20:15:07.557Z,97022.66
2023-03-02T20:17:36.428Z,97029.25
2023-03-02T20:20:05.662Z,97032.44
2023-03-02T20:22:33.230Z,97029.66
2023-03-02T20:25:00.759Z,97029.50
2023-03-02T20:27:28.316Z,97034.72
2023-03-02T20:29:56.040Z,97032.13
2023-03-02T20:32:24.650Z,97026.16
2023-03-02T20:34:53.608Z,97037.50
2023-03-02T20:37:22.532Z,97034.75
2023-03-02T20:39:50.220Z,97040.66
2023-03-02T20:42:17.757Z,97041.34
2023-03-02T20:44:45.405Z,97042.00
2023-03-02T20:47:15.537Z,97042.94
2023-03-02T20:49:43.303Z,97045.22
2023-03-02T20:52:12.285Z,97043.31
2023-03-02T20:54:42.642Z,97046.94
2023-03-02T20:57:10.537Z,97049.41
2023-03-02T20:59:38.688Z,97049.41
2023-03-02T21:02:06.791Z,97046.50
2023-03-02T21:04:36.047Z,97051.41
2023-03-02T21:07:04.068Z,97053.44
2023-03-02T21:09:33.055Z,97051.34
2023-03-02T21:12:00.694Z,97051.09
2023-03-02T21:14:28.435Z,97056.38
2023-03-02T21:16:56.034Z,97059.84
2023-03-02T21:19:23.740Z,97051.53
2023-03-02T21:21:51.345Z,97062.06
2023-03-02T21:24:20.601Z,97062.00
2023-03-02T21:26:51.168Z,97054.25
2023-03-02T21:29:20.071Z,97060.94
2023-03-02T21:31:47.823Z,97059.28
2023-03-02T21:34:16.696Z,97068.13
2023-03-02T21:36:44.367Z,97060.78
2023-03-02T21:39:12.423Z,97072.44
2023-03-02T21:41:40.256Z,97069.38
2023-03-02T21:44:09.511Z,97067.38
2023-03-02T21:46:37.934Z,97061.72
2023-03-02T21:49:06.346Z,97046.38
2023-03-02T21:51:34.095Z,97057.38
2023-03-02T21:54:01.906Z,97065.44
2023-03-02T21:56:29.479Z,97060.63
2023-03-02T21:58:57.657Z,97062.38
2023-03-02T22:01:27.214Z,97055.91
2023-03-02T22:03:54.784Z,97059.91
2023-03-02T22:06:24.008Z,97051.13
2023-03-02T22:08:52.240Z,97057.16
2023-03-02T22:11:22.665Z,97058.50
2023-03-02T22:13:51.496Z,97053.41
2023-03-02T22:16:21.298Z,97054.25
2023-03-02T22:18:54.674Z,97060.41
2023-03-02T22:21:27.930Z,97057.66
2023-03-02T22:23:57.978Z,97056.16
2023-03-02T22:26:25.704Z,97056.25
2023-03-02T22:28:53.295Z,97057.00
2023-03-02T22:31:22.510Z,97054.50
2023-03-02T22:33:51.453Z,97053.44
2023-03-02T22:36:22.639Z,97054.88
2023-03-02T22:38:50.660Z,97053.00
2023-03-02T22:41:20.458Z,97052.19
2023-03-02T22:43:49.380Z,97060.13
2023-03-02T22:46:20.513Z,97051.25
2023-03-02T22:48:49.903Z,97061.66
2023-03-02T22:51:20.951Z,97063.81
2023-03-02T22:53:53.213Z,97066.53
2023-03-02T22:56:28.266Z,97065.94
2023-03-02T22:58:56.680Z,97066.75
2023-03-02T23:01:25.690Z,97070.31
2023-03-02T23:03:55.019Z,97062.63
2023-03-02T23:06:31.969Z,97056.97
2023-03-02T23:09:01.090Z,97066.41
2023-03-02T23:11:29.612Z,97071.72
2023-03-02T23:13:57.179Z,97065.81
2023-03-02T23:16:26.992Z,97067.84
2023-03-02T23:18:56.136Z,97062.75
2023-03-02T23:21:28.286Z,97063.94
2023-03-02T23:23:57.429Z,97065.81
2023-03-02T23:26:24.940Z,97064.28
2023-03-02T23:28:52.490Z,97055.41
2023-03-02T23:31:20.336Z,97062.38
2023-03-02T23:33:47.913Z,97071.75
2023-03-02T23:36:15.541Z,97063.22
2023-03-02T23:38:43.306Z,97064.28
2023-03-02T23:41:12.269Z,97057.88
2023-03-02T23:43:39.756Z,97062.00
2023-03-02T23:46:07.620Z,97060.50
2023-03-02T23:48:35.181Z,97057.66
2023-03-02T23:51:02.758Z,97066.97
2023-03-02T23:53:30.277Z,97056.22
2023-03-02T23:55:57.792Z,97059.63
2023-03-02T23:58:26.657Z,97061.63
